Time;durP1;ratioP1;P1;durP2;ratioP2;P2;SDS_P1;SDS_P2;PMS_P1;PMS_P2;Temp;Humidity;BMP_temperature;BMP_pressure;BME280_temperature;BME280_humidity;BME280_pressure;Samples;Min_cycle;Max_cycle;Signal;HPM_P1;HPM_P2
2021/04/21 00:02:21;;;;;;;16.43;14.73;;;8.40;99.90;;;;;;5095052;28;20200;-60
2021/04/21 00:04:50;;;;;;;16.80;15.00;;;8.30;99.90;;;;;;5096583;28;20547;-61
2021/04/21 00:07:18;;;;;;;18.80;15.53;;;8.20;99.90;;;;;;5094150;28;20781;-60
2021/04/21 00:09:46;;;;;;;18.23;16.33;;;8.20;99.90;;;;;;5094273;28;20287;-62
2021/04/21 00:12:14;;;;;;;19.60;17.50;;;8.10;99.90;;;;;;5093869;28;20401;-61
2021/04/21 00:14:42;;;;;;;18.97;15.87;;;8.10;99.90;;;;;;5093642;28;20270;-61
2021/04/21 00:17:09;;;;;;;19.10;17.10;;;8.20;99.90;;;;;;5093460;28;20663;-60
2021/04/21 00:19:38;;;;;;;19.60;16.40;;;8.10;99.90;;;;;;5093586;28;20235;-61
2021/04/21 00:22:08;;;;;;;18.73;16.77;;;8.20;99.90;;;;;;5093612;28;20298;-60
2021/04/21 00:24:38;;;;;;;20.93;17.50;;;8.10;99.90;;;;;;5093456;28;20295;-60
2021/04/21 00:27:07;;;;;;;21.13;18.83;;;8.10;99.90;;;;;;5093567;28;20287;-62
2021/04/21 00:29:37;;;;;;;21.80;19.27;;;8.10;99.90;;;;;;5093866;28;20227;-61
2021/04/21 00:32:07;;;;;;;19.10;17.10;;;8.10;99.90;;;;;;5093771;28;20208;-61
2021/04/21 00:34:36;;;;;;;22.13;19.47;;;8.00;99.90;;;;;;5093827;28;20187;-60
2021/04/21 00:37:04;;;;;;;20.43;18.33;;;8.00;99.90;;;;;;5093894;28;20609;-61
2021/04/21 00:39:33;;;;;;;21.37;17.77;;;7.90;99.90;;;;;;5093435;28;20542;-61
2021/04/21 00:42:07;;;;;;;21.47;19.17;;;7.80;99.90;;;;;;5093522;28;20287;-60
2021/04/21 00:44:40;;;;;;;19.50;17.43;;;7.70;99.90;;;;;;5093500;28;20204;-61
2021/04/21 00:47:12;;;;;;;19.20;17.20;;;7.70;99.90;;;;;;5093100;28;20180;-61
2021/04/21 00:49:51;;;;;;;19.80;17.63;;;7.70;99.90;;;;;;5093671;28;20275;-60
2021/04/21 00:52:23;;;;;;;19.53;16.37;;;7.80;99.90;;;;;;5093261;28;20193;-61
2021/04/21 00:55:00;;;;;;;18.77;16.23;;;7.80;99.90;;;;;;5093212;28;20540;-61
2021/04/21 00:57:38;;;;;;;18.83;16.83;;;7.70;99.90;;;;;;5093273;28;20190;-61
2021/04/21 01:00:08;;;;;;;20.80;17.40;;;7.60;99.90;;;;;;5093036;28;20731;-61
2021/04/21 01:02:40;;;;;;;18.87;15.23;;;7.60;99.90;;;;;;5092679;28;20315;-61
2021/04/21 01:05:12;;;;;;;17.87;15.97;;;7.60;99.90;;;;;;5092410;28;20241;-61
2021/04/21 01:07:47;;;;;;;19.20;17.20;;;7.70;99.90;;;;;;5092771;28;20241;-61
2021/04/21 01:10:16;;;;;;;18.73;16.63;;;7.60;99.90;;;;;;5093038;28;20200;-60
2021/04/21 01:12:47;;;;;;;19.23;17.23;;;7.70;99.90;;;;;;5092585;28;20239;-61
2021/04/21 01:15:16;;;;;;;22.00;17.70;;;7.60;99.90;;;;;;5092830;28;20715;-60
2021/04/21 01:17:46;;;;;;;21.83;18.23;;;7.60;99.90;;;;;;5092791;28;20286;-61
2021/04/21 01:20:19;;;;;;;24.07;19.00;;;7.40;99.90;;;;;;5092881;28;20181;-61
2021/04/21 01:23:13;;;;;;;19.93;17.40;;;7.40;99.90;;;;;;5092856;28;20279;-61
2021/04/21 01:25:50;;;;;;;19.10;17.10;;;7.40;99.90;;;;;;5092937;28;20192;-61
2021/04/21 01:28:23;;;;;;;20.83;17.60;;;7.40;99.90;;;;;;5092643;28;20248;-61
2021/04/21 01:30:52;;;;;;;22.30;19.67;;;7.40;99.90;;;;;;5092935;28;20287;-62
2021/04/21 01:33:22;;;;;;;25.63;21.17;;;7.30;99.90;;;;;;5092447;28;20196;-61
2021/04/21 01:35:55;;;;;;;22.70;20.20;;;7.20;99.90;;;;;;5092579;28;20267;-62
2021/04/21 01:38:24;;;;;;;22.17;17.67;;;7.20;99.90;;;;;;5092303;28;20194;-62
2021/04/21 01:40:53;;;;;;;20.70;17.67;;;7.20;99.90;;;;;;5092779;28;20302;-61
2021/04/21 01:43:24;;;;;;;20.13;17.83;;;7.20;99.90;;;;;;5092752;28;20310;-61
2021/04/21 01:45:56;;;;;;;22.83;18.83;;;7.10;99.90;;;;;;5092581;28;20686;-61
2021/04/21 01:48:26;;;;;;;25.03;20.20;;;7.10;99.90;;;;;;5092594;28;20212;-61
2021/04/21 01:50:53;;;;;;;22.30;19.23;;;7.00;99.90;;;;;;5092739;28;20230;-61
2021/04/21 01:53:33;;;;;;;22.00;18.73;;;7.20;99.90;;;;;;5092848;28;20219;-61
2021/04/21 01:56:07;;;;;;;21.73;17.57;;;7.20;99.90;;;;;;5092761;28;20188;-61
2021/04/21 01:58:49;;;;;;;19.23;17.10;;;7.20;99.90;;;;;;5092317;28;20206;-61
2021/04/21 02:01:31;;;;;;;21.33;18.73;;;7.20;99.90;;;;;;5092691;28;20263;-61
2021/04/21 02:04:03;;;;;;;22.23;19.33;;;7.10;99.90;;;;;;5092412;28;20200;-61
2021/04/21 02:07:08;;;;;;;23.90;20.43;;;7.10;99.90;;;;;;5092351;28;20627;-61
2021/04/21 02:09:57;;;;;;;23.27;20.60;;;7.00;99.90;;;;;;5060958;28;20624;-61
2021/04/21 02:12:40;;;;;;;27.07;21.27;;;7.00;99.90;;;;;;5092221;28;20629;-61
2021/04/21 02:15:13;;;;;;;26.67;21.97;;;7.00;99.90;;;;;;5092132;28;20613;-61
2021/04/21 02:17:48;;;;;;;26.63;21.43;;;7.10;99.90;;;;;;5092016;28;20659;-61
2021/04/21 02:20:26;;;;;;;22.10;19.70;;;7.00;99.90;;;;;;5092030;28;20709;-61
2021/04/21 02:23:00;;;;;;;25.17;21.67;;;6.90;99.90;;;;;;5092089;28;20212;-62
2021/04/21 02:25:39;;;;;;;25.23;21.73;;;6.80;99.90;;;;;;5092065;28;20211;-62
2021/04/21 02:28:13;;;;;;;21.80;19.10;;;6.90;99.90;;;;;;5092069;28;20278;-61
2021/04/21 02:30:44;;;;;;;24.90;19.20;;;6.90;99.90;;;;;;5092281;28;20275;-62
2021/04/21 02:33:16;;;;;;;25.13;21.13;;;6.90;99.90;;;;;;5088702;28;20679;-62
2021/04/21 02:35:48;;;;;;;22.77;20.23;;;6.80;99.90;;;;;;5092224;28;20271;-61
2021/04/21 02:38:32;;;;;;;23.87;19.50;;;6.80;99.90;;;;;;5092044;28;20184;-61
2021/04/21 02:41:07;;;;;;;23.03;18.90;;;6.90;99.90;;;;;;5092276;28;20251;-61
2021/04/21 02:43:54;;;;;;;22.03;18.93;;;6.90;99.90;;;;;;5092024;28;20254;-61
2021/04/21 02:46:28;;;;;;;21.67;18.40;;;6.80;99.90;;;;;;5092027;28;20272;-61
2021/04/21 02:49:08;;;;;;;23.70;20.60;;;6.80;99.90;;;;;;5091907;28;20260;-61
2021/04/21 02:51:54;;;;;;;24.30;20.27;;;6.70;99.90;;;;;;5094096;28;20198;-61
2021/04/21 02:54:25;;;;;;;26.13;21.30;;;6.70;99.90;;;;;;5095728;28;20176;-61
2021/04/21 02:56:56;;;;;;;24.73;20.33;;;6.60;99.90;;;;;;5095598;28;20188;-61
2021/04/21 02:59:31;;;;;;;24.43;21.17;;;6.60;99.90;;;;;;5095673;28;20271;-62
2021/04/21 03:02:06;;;;;;;22.33;19.80;;;6.60;99.90;;;;;;5094884;28;20195;-61
2021/04/21 03:04:40;;;;;;;24.47;20.70;;;6.50;99.90;;;;;;5095108;28;20243;-61
2021/04/21 03:07:14;;;;;;;23.93;20.27;;;6.50;99.90;;;;;;5095121;28;20203;-62
2021/04/21 03:09:48;;;;;;;23.70;21.07;;;6.50;99.90;;;;;;5095384;28;20274;-62
2021/04/21 03:12:19;;;;;;;25.73;21.60;;;6.40;99.90;;;;;;5095393;28;20291;-62
2021/04/21 03:14:51;;;;;;;34.70;31.10;;;6.40;99.90;;;;;;5093802;28;20501;-62
2021/04/21 03:17:19;;;;;;;34.10;28.90;;;6.40;99.90;;;;;;5094602;28;20267;-62
2021/04/21 03:19:50;;;;;;;28.40;24.57;;;6.30;99.90;;;;;;5095284;28;20211;-60
2021/04/21 03:22:20;;;;;;;30.70;24.90;;;6.20;99.90;;;;;;5094911;28;20189;-61
2021/04/21 03:24:57;;;;;;;27.50;23.83;;;6.10;99.90;;;;;;5094611;28;20226;-62
2021/04/21 03:27:28;;;;;;;29.13;24.13;;;6.00;99.90;;;;;;5095081;28;20270;-62
2021/04/21 03:29:56;;;;;;;30.20;25.17;;;6.00;99.90;;;;;;5095047;28;20217;-61
2021/04/21 03:32:27;;;;;;;28.60;24.27;;;6.10;99.90;;;;;;5094541;28;20204;-62
2021/04/21 03:34:56;;;;;;;30.50;24.80;;;6.10;99.90;;;;;;5094946;28;20270;-61
2021/04/21 03:37:32;;;;;;;27.70;22.63;;;6.20;99.90;;;;;;5094932;28;20268;-61
2021/04/21 03:40:00;;;;;;;27.47;23.37;;;6.20;99.90;;;;;;5094784;28;20180;-61
2021/04/21 03:42:27;;;;;;;32.43;23.90;;;6.10;99.90;;;;;;5094769;28;20294;-61
2021/04/21 03:44:54;;;;;;;29.10;23.43;;;6.10;99.90;;;;;;5094639;28;20223;-61
2021/04/21 03:47:21;;;;;;;28.47;23.87;;;6.00;99.90;;;;;;5093809;28;20235;-62
2021/04/21 03:49:50;;;;;;;28.03;23.63;;;6.00;99.90;;;;;;5094637;28;20195;-62
2021/04/21 03:52:22;;;;;;;29.83;24.43;;;6.00;99.90;;;;;;5094245;28;20294;-62
2021/04/21 03:54:51;;;;;;;29.40;23.67;;;6.00;99.90;;;;;;5094560;28;20279;-60
2021/04/21 03:57:19;;;;;;;28.03;24.00;;;6.00;99.90;;;;;;5094627;28;20238;-61
2021/04/21 03:59:48;;;;;;;32.00;25.10;;;6.10;99.90;;;;;;5094464;28;20331;-62
2021/04/21 04:02:15;;;;;;;25.43;22.47;;;6.00;99.90;;;;;;5093233;28;20200;-62
2021/04/21 04:04:48;;;;;;;26.97;22.97;;;6.00;99.90;;;;;;5094010;28;20239;-62
2021/04/21 04:07:20;;;;;;;29.10;23.03;;;6.00;99.90;;;;;;5094218;28;20275;-60
2021/04/21 04:09:49;;;;;;;28.93;24.40;;;6.00;99.90;;;;;;5093993;28;20282;-63
2021/04/21 04:12:18;;;;;;;28.13;22.63;;;5.90;99.90;;;;;;5094247;28;20233;-62
2021/04/21 04:14:47;;;;;;;32.13;24.43;;;6.00;99.90;;;;;;5093636;28;20869;-61
2021/04/21 04:17:20;;;;;;;27.67;24.67;;;6.20;99.90;;;;;;5093970;28;20207;-62
2021/04/21 04:19:49;;;;;;;30.83;24.97;;;6.10;99.90;;;;;;5093848;28;20215;-61
2021/04/21 04:22:20;;;;;;;31.27;27.43;;;6.00;99.90;;;;;;5093613;28;20608;-61
2021/04/21 04:24:51;;;;;;;30.50;24.40;;;5.90;99.90;;;;;;5093874;28;20294;-61
2021/04/21 04:27:24;;;;;;;26.97;22.50;;;6.00;99.90;;;;;;5093645;28;20670;-63
2021/04/21 04:29:53;;;;;;;27.63;22.53;;;6.00;99.90;;;;;;5093852;28;20291;-61
2021/04/21 04:32:21;;;;;;;26.37;20.13;;;6.10;99.90;;;;;;5093332;28;20253;-61
2021/04/21 04:34:51;;;;;;;25.20;20.13;;;6.30;99.90;;;;;;5093525;28;20229;-62
2021/04/21 04:37:21;;;;;;;24.70;20.83;;;6.30;99.90;;;;;;5093741;28;20231;-61
2021/04/21 04:39:48;;;;;;;26.67;22.27;;;6.30;99.90;;;;;;5093914;28;20239;-61
2021/04/21 04:42:16;;;;;;;27.47;22.67;;;6.30;99.90;;;;;;5093966;28;20295;-62
2021/04/21 04:44:45;;;;;;;28.13;23.53;;;6.20;99.90;;;;;;5094291;28;20219;-61
2021/04/21 04:47:17;;;;;;;23.50;20.60;;;6.30;99.90;;;;;;5093408;28;20207;-62
2021/04/21 04:49:52;;;;;;;25.73;20.67;;;6.30;99.90;;;;;;5093190;28;20219;-62
2021/04/21 04:52:20;;;;;;;24.93;21.40;;;6.30;99.90;;;;;;5093680;28;20232;-64
2021/04/21 04:54:49;;;;;;;23.73;21.03;;;6.30;99.90;;;;;;5093156;28;20204;-62
2021/04/21 04:57:18;;;;;;;25.20;20.80;;;6.20;99.90;;;;;;5092984;28;20196;-61
2021/04/21 04:59:47;;;;;;;25.23;21.40;;;6.40;99.90;;;;;;5092689;28;20656;-62
2021/04/21 05:02:17;;;;;;;24.83;21.47;;;6.50;99.90;;;;;;5093135;28;20227;-64
2021/04/21 05:04:53;;;;;;;24.00;20.67;;;6.60;99.90;;;;;;5092929;28;20224;-63
2021/04/21 05:07:26;;;;;;;22.17;19.77;;;6.70;99.90;;;;;;5093331;28;20187;-64
2021/04/21 05:09:57;;;;;;;21.80;18.03;;;6.90;99.90;;;;;;5093076;28;20550;-63
2021/04/21 05:12:27;;;;;;;22.90;19.27;;;7.00;99.90;;;;;;5093104;28;20522;-63
2021/04/21 05:14:56;;;;;;;22.70;19.17;;;7.30;99.90;;;;;;5091452;28;20227;-63
2021/04/21 05:18:14;;;;;;;22.40;17.90;;;7.40;99.90;;;;;;5092309;28;20214;-63
2021/04/21 05:21:26;;;;;;;21.97;16.70;;;7.50;99.90;;;;;;5092498;28;20203;-63
2021/04/21 05:24:35;;;;;;;18.37;16.37;;;7.70;99.90;;;;;;5089233;28;20672;-62
2021/04/21 05:27:43;;;;;;;18.87;16.13;;;7.90;99.90;;;;;;5092776;28;20187;-63
2021/04/21 05:30:44;;;;;;;19.70;15.60;;;8.00;99.90;;;;;;5092387;28;20219;-63
2021/04/21 05:33:50;;;;;;;19.23;16.37;;;8.20;99.90;;;;;;5092515;28;20227;-63
2021/04/21 05:36:52;;;;;;;18.27;15.80;;;8.30;99.90;;;;;;5091300;28;20226;-63
2021/04/21 05:39:54;;;;;;;18.67;16.37;;;8.40;99.90;;;;;;5089079;28;20276;-61
2021/04/21 05:42:58;;;;;;;18.53;15.13;;;8.50;99.90;;;;;;5086253;28;20279;-67
2021/04/21 05:46:08;;;;;;;16.07;13.83;;;8.50;99.90;;;;;;5088489;28;20701;-66
2021/04/21 05:49:15;;;;;;;16.30;13.73;;;8.70;99.90;;;;;;5062598;28;20216;-67
2021/04/21 05:52:00;;;;;;;15.50;13.10;;;8.80;99.90;;;;;;5087320;28;20192;-61
2021/04/21 05:55:02;;;;;;;15.90;12.40;;;9.00;99.90;;;;;;5074076;28;20194;-60
2021/04/21 05:58:13;;;;;;;14.87;13.17;;;9.10;99.90;;;;;;5088990;28;20226;-59
2021/04/21 06:01:15;;;;;;;13.83;12.07;;;9.30;99.90;;;;;;5068753;28;20710;-61
2021/04/21 06:03:46;;;;;;;13.77;12.37;;;9.40;99.90;;;;;;5065927;28;20586;-60
2021/04/21 06:06:13;;;;;;;15.87;11.37;;;9.50;99.90;;;;;;5068991;28;20275;-59
2021/04/21 06:08:40;;;;;;;11.73;10.03;;;9.50;99.90;;;;;;5085767;28;20199;-64
2021/04/21 06:11:18;;;;;;;15.07;10.93;;;9.70;99.90;;;;;;5089353;28;20202;-62
2021/04/21 06:13:45;;;;;;;14.00;11.10;;;9.80;99.90;;;;;;5088200;28;20231;-61
2021/04/21 06:16:16;;;;;;;14.47;10.43;;;9.90;99.90;;;;;;5089285;28;20300;-63
2021/04/21 06:18:44;;;;;;;12.87;11.27;;;9.90;99.90;;;;;;5088846;28;20180;-62
2021/04/21 06:21:16;;;;;;;12.33;10.40;;;9.90;99.90;;;;;;5088703;28;20686;-64
2021/04/21 06:23:44;;;;;;;12.37;10.83;;;10.00;99.90;;;;;;5095426;28;20393;-65
2021/04/21 06:26:11;;;;;;;12.77;10.40;;;10.00;99.90;;;;;;5091907;28;20220;-64
2021/04/21 06:28:39;;;;;;;12.03;10.47;;;10.10;99.90;;;;;;5092965;28;20254;-66
2021/04/21 06:31:09;;;;;;;12.43;9.90;;;10.10;99.90;;;;;;5092812;28;20215;-63
2021/04/21 06:33:37;;;;;;;12.80;10.80;;;10.20;99.90;;;;;;5092177;28;20206;-61
2021/04/21 06:36:07;;;;;;;11.67;10.47;;;10.30;99.90;;;;;;5090488;28;20200;-63
2021/04/21 06:38:36;;;;;;;11.80;9.60;;;10.30;99.90;;;;;;5092574;28;20235;-62
2021/04/21 06:41:03;;;;;;;11.23;9.70;;;10.40;99.90;;;;;;5091728;28;20746;-60
2021/04/21 06:43:31;;;;;;;19.77;10.77;;;10.50;99.90;;;;;;5092493;28;20553;-60
2021/04/21 06:46:00;;;;;;;13.93;10.47;;;10.50;99.90;;;;;;5092267;28;20220;-59
2021/04/21 06:48:28;;;;;;;11.73;10.50;;;10.50;99.90;;;;;;5092266;28;20204;-60
2021/04/21 06:50:55;;;;;;;12.43;9.87;;;10.60;99.90;;;;;;5091945;28;20677;-60
2021/04/21 06:53:31;;;;;;;13.33;10.37;;;10.60;99.90;;;;;;5096185;28;20204;-60
2021/04/21 06:55:58;;;;;;;12.27;9.87;;;10.70;99.90;;;;;;5109046;28;20187;-60
2021/04/21 06:58:27;;;;;;;14.27;9.73;;;10.70;99.90;;;;;;5084031;28;20331;-59
2021/04/21 07:00:54;;;;;;;14.93;9.60;;;10.80;99.90;;;;;;5074460;28;20197;-62
2021/04/21 07:03:22;;;;;;;11.00;9.80;;;10.90;99.90;;;;;;5070635;28;20751;-60
2021/04/21 07:05:49;;;;;;;13.03;9.80;;;11.00;99.90;;;;;;5070108;28;20213;-61
2021/04/21 07:08:18;;;;;;;13.07;9.53;;;11.10;99.90;;;;;;5070233;28;20196;-60
2021/04/21 07:10:47;;;;;;;13.60;9.60;;;11.20;99.90;;;;;;5070643;28;20227;-58
2021/04/21 07:13:19;;;;;;;11.50;9.13;;;11.30;99.90;;;;;;5070588;28;20263;-60
2021/04/21 07:15:47;;;;;;;11.80;8.80;;;11.30;99.90;;;;;;5070568;28;20627;-64
2021/04/21 07:18:15;;;;;;;11.27;8.30;;;11.40;99.90;;;;;;5070023;28;20246;-64
2021/04/21 07:20:44;;;;;;;10.87;9.07;;;11.40;99.90;;;;;;5070825;28;20299;-60
2021/04/21 07:23:12;;;;;;;11.40;9.20;;;11.50;99.90;;;;;;5075084;28;20209;-59
2021/04/21 07:25:40;;;;;;;9.80;8.47;;;11.60;99.90;;;;;;5110877;28;20219;-59
2021/04/21 07:28:08;;;;;;;11.83;7.47;;;11.80;99.90;;;;;;5111104;28;20640;-60
2021/04/21 07:30:36;;;;;;;9.00;6.70;;;11.90;99.90;;;;;;5110920;28;20206;-59
2021/04/21 07:33:02;;;;;;;10.93;6.53;;;12.00;99.90;;;;;;5110911;28;20215;-60
2021/04/21 07:35:30;;;;;;;9.37;6.60;;;12.20;99.90;;;;;;5111006;28;20628;-60
2021/04/21 07:37:58;;;;;;;9.97;7.00;;;12.20;99.90;;;;;;5110175;28;20660;-62
2021/04/21 07:40:32;;;;;;;7.97;6.23;;;12.00;99.90;;;;;;5110528;28;20257;-60
2021/04/21 07:43:21;;;;;;;11.50;6.80;;;12.10;99.90;;;;;;5110419;28;20693;-59
2021/04/21 07:45:54;;;;;;;8.97;6.03;;;12.20;99.90;;;;;;5110453;27;20225;-59
2021/04/21 07:48:39;;;;;;;10.27;6.57;;;12.30;99.90;;;;;;5110393;28;20751;-62
2021/04/21 07:51:44;;;;;;;15.03;6.70;;;12.30;99.90;;;;;;5110837;28;20226;-62
2021/04/21 07:54:29;;;;;;;8.67;5.67;;;12.40;99.90;;;;;;5110298;28;20623;-60
2021/04/21 07:57:03;;;;;;;12.00;5.87;;;12.40;99.90;;;;;;5109822;28;20270;-61
2021/04/21 07:59:31;;;;;;;12.53;7.20;;;12.40;99.90;;;;;;5096410;28;20224;-60
2021/04/21 08:02:08;;;;;;;11.00;6.70;;;12.50;99.90;;;;;;5090093;28;20689;-60
2021/04/21 08:04:52;;;;;;;10.27;6.77;;;12.70;99.90;;;;;;5082181;28;20219;-61
2021/04/21 08:07:30;;;;;;;11.10;7.37;;;12.80;99.90;;;;;;5075698;28;20288;-61
2021/04/21 08:09:59;;;;;;;9.17;6.27;;;12.90;99.90;;;;;;5069357;28;20263;-60
2021/04/21 08:12:28;;;;;;;7.50;6.00;;;12.90;99.90;;;;;;5069736;28;20232;-60
2021/04/21 08:14:59;;;;;;;10.50;6.13;;;12.80;99.90;;;;;;5068865;28;20241;-62
2021/04/21 08:17:26;;;;;;;7.87;5.70;;;12.70;99.90;;;;;;5069566;28;20641;-60
2021/04/21 08:19:56;;;;;;;10.03;5.67;;;12.70;99.90;;;;;;5069296;28;20209;-59
2021/04/21 08:22:25;;;;;;;9.93;5.60;;;12.80;99.90;;;;;;5069746;28;20282;-60
2021/04/21 08:24:52;;;;;;;9.50;5.40;;;12.90;99.90;;;;;;5069452;28;20239;-62
2021/04/21 08:27:21;;;;;;;8.60;5.40;;;12.90;99.90;;;;;;5069264;28;20757;-61
2021/04/21 08:29:50;;;;;;;7.80;4.60;;;13.10;99.90;;;;;;5069891;28;20734;-60
2021/04/21 08:32:19;;;;;;;7.63;5.00;;;13.20;99.90;;;;;;5069415;28;20208;-59
2021/04/21 08:34:47;;;;;;;7.00;5.33;;;13.30;99.90;;;;;;5092281;28;20215;-60
2021/04/21 08:37:15;;;;;;;6.40;4.70;;;13.40;99.90;;;;;;5111211;28;20231;-57
2021/04/21 08:39:42;;;;;;;9.98;5.18;;;13.40;99.90;;;;;;5110298;28;20298;-57
2021/04/21 08:42:11;;;;;;;6.93;5.20;;;13.50;99.90;;;;;;5110101;28;20235;-58
2021/04/21 08:44:43;;;;;;;8.05;5.30;;;13.60;99.90;;;;;;5109801;28;20215;-59
2021/04/21 08:47:15;;;;;;;9.57;4.72;;;13.70;99.90;;;;;;5105310;28;20191;-59
2021/04/21 08:49:42;;;;;;;8.68;4.85;;;13.80;99.90;;;;;;5082100;28;20196;-60
2021/04/21 08:52:12;;;;;;;9.30;5.63;;;13.80;99.90;;;;;;5069197;28;20205;-59
2021/04/21 08:54:40;;;;;;;11.63;5.47;;;13.80;99.90;;;;;;5068375;28;20732;-59
2021/04/21 08:57:08;;;;;;;7.95;5.10;;;13.90;99.90;;;;;;5068729;28;20203;-58
2021/04/21 08:59:35;;;;;;;8.57;4.95;;;13.80;99.90;;;;;;5083413;28;20433;-59
2021/04/21 09:02:02;;;;;;;7.20;5.28;;;13.90;99.90;;;;;;5088853;28;20199;-59
2021/04/21 09:04:30;;;;;;;8.48;5.38;;;14.00;99.90;;;;;;5088886;28;20546;-60
2021/04/21 09:06:57;;;;;;;9.75;5.43;;;14.10;99.90;;;;;;5088397;28;20203;-59
2021/04/21 09:09:24;;;;;;;12.23;5.28;;;14.10;99.90;;;;;;5089275;28;20200;-58
2021/04/21 09:11:54;;;;;;;11.83;5.27;;;14.10;99.90;;;;;;5086748;28;20284;-59
2021/04/21 09:14:21;;;;;;;6.32;5.10;;;14.10;99.90;;;;;;5078065;28;20298;-58
2021/04/21 09:16:48;;;;;;;7.10;4.97;;;14.20;99.90;;;;;;5069354;28;20197;-59
2021/04/21 09:19:16;;;;;;;7.15;5.05;;;14.10;99.90;;;;;;5071732;28;20206;-57
2021/04/21 09:21:43;;;;;;;7.85;4.75;;;14.10;99.90;;;;;;5069167;28;20258;-60
2021/04/21 09:24:25;;;;;;;6.85;4.45;;;14.20;99.90;;;;;;5068801;28;20229;-59
2021/04/21 09:26:53;;;;;;;7.38;4.38;;;14.20;99.90;;;;;;5069386;28;20216;-59
2021/04/21 09:29:27;;;;;;;8.35;5.28;;;14.20;99.90;;;;;;5076082;28;20209;-59
2021/04/21 09:32:07;;;;;;;9.43;5.65;;;14.30;99.90;;;;;;5069697;28;20722;-60
2021/04/21 09:34:55;;;;;;;7.75;5.07;;;14.10;99.90;;;;;;5077799;28;20201;-59
2021/04/21 09:37:26;;;;;;;8.00;4.85;;;14.20;99.90;;;;;;5069025;28;20188;-60
2021/04/21 09:39:53;;;;;;;11.00;5.25;;;14.30;99.90;;;;;;5068975;28;20201;-58
2021/04/21 09:42:26;;;;;;;8.73;5.50;;;14.40;99.90;;;;;;5069078;28;20288;-59
2021/04/21 09:44:53;;;;;;;7.35;5.15;;;14.50;99.90;;;;;;5068681;28;20248;-59
2021/04/21 09:47:20;;;;;;;6.30;4.90;;;14.70;99.90;;;;;;5068159;28;20698;-60
2021/04/21 09:49:58;;;;;;;9.35;4.93;;;14.70;99.90;;;;;;5068053;28;20215;-60
2021/04/21 09:52:29;;;;;;;7.75;5.45;;;14.80;99.90;;;;;;5067868;28;20245;-60
2021/04/21 09:54:57;;;;;;;6.45;4.75;;;14.80;99.90;;;;;;5068109;28;20197;-59
2021/04/21 09:57:27;;;;;;;10.20;6.07;;;14.70;99.90;;;;;;5069150;28;20299;-58
2021/04/21 09:59:57;;;;;;;6.45;5.38;;;14.70;99.90;;;;;;5087854;28;20302;-60
2021/04/21 10:02:35;;;;;;;8.30;5.55;;;14.70;99.90;;;;;;5092602;28;20703;-59
2021/04/21 10:05:26;;;;;;;8.50;5.35;;;14.80;99.90;;;;;;5092996;28;20211;-59
2021/04/21 10:08:17;;;;;;;7.63;5.30;;;14.90;99.90;;;;;;5093294;28;20243;-59
2021/04/21 10:10:46;;;;;;;5.85;4.70;;;15.10;99.90;;;;;;5092671;28;20612;-61
2021/04/21 10:13:15;;;;;;;7.47;5.25;;;15.20;99.90;;;;;;5092671;28;20313;-60
2021/04/21 10:16:00;;;;;;;7.60;5.22;;;15.40;99.90;;;;;;5093157;28;20238;-61
2021/04/21 10:18:27;;;;;;;6.50;4.97;;;15.40;99.90;;;;;;5092497;28;20296;-60
2021/04/21 10:20:55;;;;;;;9.93;5.40;;;15.40;99.90;;;;;;5092918;28;20250;-61
2021/04/21 10:23:23;;;;;;;6.78;5.78;;;15.40;99.90;;;;;;5092749;28;20653;-57
2021/04/21 10:25:50;;;;;;;6.40;5.10;;;15.40;99.90;;;;;;5092586;28;20290;-57
2021/04/21 10:28:18;;;;;;;7.40;5.40;;;15.50;99.90;;;;;;5092961;28;20200;-58
2021/04/21 10:30:45;;;;;;;6.90;5.10;;;15.50;99.90;;;;;;5091992;28;20235;-58
2021/04/21 10:33:15;;;;;;;9.00;6.55;;;15.50;99.90;;;;;;5092224;28;20631;-58
2021/04/21 10:35:42;;;;;;;7.13;5.65;;;15.50;99.90;;;;;;5092741;28;20206;-58
2021/04/21 10:38:15;;;;;;;7.38;5.20;;;15.50;99.90;;;;;;5092531;28;20299;-57
2021/04/21 10:40:42;;;;;;;6.82;5.88;;;15.50;99.90;;;;;;5092635;28;20188;-58
2021/04/21 10:43:09;;;;;;;7.97;5.85;;;15.60;99.90;;;;;;5092444;28;20726;-58
2021/04/21 10:45:48;;;;;;;8.20;5.82;;;15.60;99.90;;;;;;5092576;28;20311;-57
2021/04/21 10:48:37;;;;;;;9.27;6.20;;;15.50;99.90;;;;;;5092149;28;20276;-56
2021/04/21 10:51:32;;;;;;;9.10;5.75;;;15.60;99.90;;;;;;5091919;28;20195;-57
2021/04/21 10:54:02;;;;;;;7.22;6.30;;;15.50;99.90;;;;;;5092105;28;20310;-57
2021/04/21 10:56:30;;;;;;;8.25;6.57;;;15.50;99.90;;;;;;5092253;28;20295;-58
2021/04/21 10:58:58;;;;;;;7.70;5.90;;;15.60;99.90;;;;;;5091829;28;20224;-59
2021/04/21 11:01:33;;;;;;;8.48;6.47;;;15.70;99.90;;;;;;5092200;28;20204;-57
2021/04/21 11:04:02;;;;;;;7.32;5.88;;;15.90;99.90;;;;;;5091978;28;20253;-59
2021/04/21 11:06:47;;;;;;;9.90;6.13;;;15.90;99.90;;;;;;5092026;28;20315;-59
2021/04/21 11:09:19;;;;;;;9.20;6.15;;;16.00;99.90;;;;;;5092147;28;20636;-59
2021/04/21 11:11:48;;;;;;;10.95;6.35;;;16.00;99.90;;;;;;5090907;28;20290;-59
2021/04/21 11:14:16;;;;;;;8.52;6.03;;;16.10;99.90;;;;;;5091822;28;20288;-59
2021/04/21 11:16:45;;;;;;;6.72;5.82;;;16.10;99.90;;;;;;5091543;28;20316;-58
2021/04/21 11:19:31;;;;;;;8.65;6.30;;;16.10;99.90;;;;;;5091861;28;20651;-59
2021/04/21 11:22:28;;;;;;;8.35;6.45;;;16.10;99.90;;;;;;5091854;28;20196;-58
2021/04/21 11:25:22;;;;;;;9.02;6.32;;;15.90;99.90;;;;;;5091562;28;20636;-58
2021/04/21 11:27:50;;;;;;;7.60;5.45;;;15.90;99.90;;;;;;5092078;28;20239;-59
2021/04/21 11:30:59;;;;;;;8.27;6.22;;;16.00;99.90;;;;;;5091616;28;20239;-59
2021/04/21 11:33:57;;;;;;;7.78;6.53;;;16.10;99.90;;;;;;5091285;28;20194;-59
2021/04/21 11:36:41;;;;;;;8.55;6.38;;;16.10;99.90;;;;;;5091440;28;20647;-59
2021/04/21 11:39:08;;;;;;;10.98;7.00;;;16.10;99.90;;;;;;5091274;28;20210;-59
2021/04/21 11:41:40;;;;;;;7.80;6.55;;;16.20;99.90;;;;;;5091635;28;20223;-59
2021/04/21 11:44:09;;;;;;;8.70;5.95;;;16.20;99.90;;;;;;5091581;28;20267;-55
2021/04/21 11:46:58;;;;;;;7.57;6.30;;;16.20;99.90;;;;;;5091367;28;20258;-60
2021/04/21 11:49:58;;;;;;;8.10;6.15;;;16.50;99.90;;;;;;5091535;28;20200;-59
2021/04/21 11:52:56;;;;;;;7.43;5.57;;;16.50;99.10;;;;;;5086324;28;20287;-59
2021/04/21 11:55:27;;;;;;;5.43;4.93;;;16.60;97.90;;;;;;5028990;28;21406;-58
2021/04/21 11:57:57;;;;;;;9.63;5.30;;;16.60;98.20;;;;;;5078840;28;20208;-56
2021/04/21 12:00:27;;;;;;;6.82;5.20;;;16.60;96.70;;;;;;5090213;28;20231;-56
2021/04/21 12:02:54;;;;;;;8.10;5.75;;;16.70;95.40;;;;;;5090591;28;20695;-54
2021/04/21 12:05:26;;;;;;;6.07;5.22;;;16.70;95.60;;;;;;5090987;28;20216;-59
2021/04/21 12:07:56;;;;;;;11.18;5.10;;;16.70;94.60;;;;;;5090769;28;20652;-59
2021/04/21 12:10:23;;;;;;;6.97;4.90;;;16.60;93.80;;;;;;5090424;28;20294;-59
2021/04/21 12:12:50;;;;;;;7.18;4.70;;;16.50;93.00;;;;;;5089739;28;20235;-59
2021/04/21 12:15:19;;;;;;;7.35;5.20;;;16.50;93.20;;;;;;5090713;28;20319;-59
2021/04/21 12:17:54;;;;;;;7.85;5.43;;;16.50;93.60;;;;;;5090449;28;20200;-59
2021/04/21 12:20:28;;;;;;;5.93;5.07;;;16.70;94.00;;;;;;5090432;28;20199;-58
2021/04/21 12:22:56;;;;;;;8.23;5.10;;;16.70;93.30;;;;;;5089725;28;20185;-59
2021/04/21 12:25:27;;;;;;;7.63;5.00;;;16.80;93.80;;;;;;5090290;28;20316;-59
2021/04/21 12:27:55;;;;;;;6.25;4.63;;;16.80;93.30;;;;;;5090503;28;20198;-59
2021/04/21 12:30:27;;;;;;;6.15;4.90;;;16.80;92.70;;;;;;5090649;28;20282;-60
2021/04/21 12:33:11;;;;;;;5.40;4.82;;;16.80;92.90;;;;;;5090365;28;20184;-58
2021/04/21 12:35:38;;;;;;;5.50;4.38;;;16.90;92.50;;;;;;5090653;28;20295;-58
2021/04/21 12:38:05;;;;;;;6.82;4.82;;;16.70;91.70;;;;;;5090105;28;20263;-59
2021/04/21 12:40:34;;;;;;;6.22;5.05;;;16.70;91.50;;;;;;5090617;28;20200;-58
2021/04/21 12:43:09;;;;;;;6.68;4.68;;;16.70;91.90;;;;;;5090426;28;20286;-58
2021/04/21 12:45:39;;;;;;;8.30;4.80;;;16.60;92.20;;;;;;5090313;28;20294;-59
2021/04/21 12:48:20;;;;;;;6.20;5.07;;;16.60;92.20;;;;;;5089400;28;20275;-60
2021/04/21 12:50:48;;;;;;;7.28;4.70;;;16.70;92.60;;;;;;5086440;28;20283;-60
2021/04/21 12:53:18;;;;;;;5.57;4.75;;;16.80;91.00;;;;;;5074943;28;20855;-61
2021/04/21 12:55:45;;;;;;;6.45;4.70;;;16.70;91.50;;;;;;5069181;28;20251;-59
2021/04/21 12:58:12;;;;;;;8.52;5.18;;;16.70;91.70;;;;;;5072369;28;20308;-60
2021/04/21 13:00:41;;;;;;;7.47;4.63;;;16.80;92.40;;;;;;5089600;28;20236;-60
2021/04/21 13:03:18;;;;;;;5.68;4.88;;;16.90;93.10;;;;;;5089775;28;20287;-60
2021/04/21 13:05:50;;;;;;;5.05;4.55;;;16.70;91.80;;;;;;5090179;28;20303;-61
2021/04/21 13:08:18;;;;;;;7.78;4.90;;;16.80;91.70;;;;;;5089613;28;20196;-62
2021/04/21 13:10:45;;;;;;;7.00;4.30;;;16.90;92.00;;;;;;5089745;28;20221;-61
2021/04/21 13:13:12;;;;;;;6.97;4.80;;;16.90;92.00;;;;;;5089753;28;20261;-61
2021/04/21 13:15:39;;;;;;;6.10;4.93;;;16.80;91.40;;;;;;5089887;28;20855;-55